Time,TemperatureF,DewpointF,PressureIn,WindDirection,WindDirectionDegrees,WindSpeedMPH,WindSpeedGustMPH,Humidity,HourlyPrecipIn,Conditions,Clouds,dailyrainin,SoftwareType,DateUTC
2013-02-02 00:02:00,27.0,17.0,30.21,North,-999,-999.0,-999.0,65,-99.99,,,-99.99,,2013-02-02 07:02:00,
2013-02-02 00:11:00,27.0,17.0,30.21,North,-999,-999.0,-999.0,65,-99.99,,,-99.99,,2013-02-02 07:11:00,
2013-02-02 00:21:00,27.0,17.0,30.21,North,-999,-999.0,-999.0,66,-99.99,,,-99.99,,2013-02-02 07:21:00,
2013-02-02 00:31:00,26.0,16.0,30.21,North,-999,-999.0,-999.0,66,-99.99,,,-99.99,,2013-02-02 07:31:00,
2013-02-02 00:41:00,26.0,16.0,30.21,North,-999,-999.0,-999.0,66,-99.99,,,-99.99,,2013-02-02 07:41:00,
2013-02-02 00:52:00,26.0,17.0,30.22,North,-999,-999.0,-999.0,68,-99.99,,,-99.99,,2013-02-02 07:52:00,
2013-02-02 01:01:00,25.0,16.0,30.22,North,-999,-999.0,-999.0,68,-99.99,,,-99.99,,2013-02-02 08:01:00,
2013-02-02 01:11:00,25.0,16.0,30.22,North,-999,-999.0,-999.0,68,-99.99,,,-99.99,,2013-02-02 08:11:00,
2013-02-02 01:21:00,25.0,16.0,30.22,North,-999,-999.0,-999.0,69,-99.99,,,-99.99,,2013-02-02 08:21:00,
2013-02-02 01:31:00,25.0,16.0,30.22,North,-999,-999.0,-999.0,69,-99.99,,,-99.99,,2013-02-02 08:31:00,
2013-02-02 01:41:00,25.0,16.0,30.22,North,-999,-999.0,-999.0,69,-99.99,,,-99.99,,2013-02-02 08:41:00,
2013-02-02 01:53:00,24.0,16.0,30.23,North,-999,-999.0,-999.0,70,-99.99,,,-99.99,,2013-02-02 08:53:00,
2013-02-02 02:01:00,23.0,15.0,30.23,North,-999,-999.0,-999.0,71,-99.99,,,-99.99,,2013-02-02 09:01:00,
2013-02-02 02:11:00,23.0,15.0,30.23,North,-999,-999.0,-999.0,71,-99.99,,,-99.99,,2013-02-02 09:11:00,
2013-02-02 02:22:00,23.0,15.0,30.23,North,-999,-999.0,-999.0,72,-99.99,,,-99.99,,2013-02-02 09:22:00,
2013-02-02 02:31:00,22.0,15.0,30.24,North,-999,-999.0,-999.0,74,-99.99,,,-99.99,,2013-02-02 09:31:00,
2013-02-02 02:41:00,22.0,15.0,30.24,North,-999,-999.0,-999.0,74,-99.99,,,-99.99,,2013-02-02 09:41:00,
2013-02-02 02:52:00,22.0,15.0,30.24,North,-999,-999.0,-999.0,75,-99.99,,,-99.99,,2013-02-02 09:52:00,
2013-02-02 03:01:00,22.0,15.0,30.25,North,-999,-999.0,-999.0,74,-99.99,,,-99.99,,2013-02-02 10:01:00,
2013-02-02 03:11:00,22.0,15.0,30.25,North,-999,-999.0,-999.0,74,-99.99,,,-99.99,,2013-02-02 10:11:00,
2013-02-02 03:21:00,21.0,14.0,30.25,North,-999,-999.0,-999.0,75,-99.99,,,-99.99,,2013-02-02 10:21:00,
2013-02-02 03:31:00,19.0,13.0,30.25,North,-999,-999.0,-999.0,76,-99.99,,,-99.99,,2013-02-02 10:31:00,
2013-02-02 03:41:00,19.0,13.0,30.25,North,-999,-999.0,-999.0,76,-99.99,,,-99.99,,2013-02-02 10:41:00,
2013-02-02 03:52:00,19.0,14.0,30.25,North,-999,-999.0,-999.0,79,-99.99,,,-99.99,,2013-02-02 10:52:00,
2013-02-02 04:01:00,18.0,12.0,30.25,North,-999,-999.0,-999.0,78,-99.99,,,-99.99,,2013-02-02 11:01:00,
2013-02-02 04:11:00,18.0,12.0,30.25,North,-999,-999.0,-999.0,78,-99.99,,,-99.99,,2013-02-02 11:11:00,
2013-02-02 04:21:00,18.0,13.0,30.25,North,-999,-999.0,-999.0,80,-99.99,,,-99.99,,2013-02-02 11:21:00,
2013-02-02 04:31:00,17.0,11.0,30.25,North,-999,-999.0,-999.0,78,-99.99,,,-99.99,,2013-02-02 11:31:00,
2013-02-02 04:41:00,17.0,11.0,30.25,North,-999,-999.0,-999.0,78,-99.99,,,-99.99,,2013-02-02 11:41:00,
2013-02-02 04:52:00,16.0,12.0,30.25,North,-999,-999.0,-999.0,85,-99.99,,,-99.99,,2013-02-02 11:52:00,
2013-02-02 05:01:00,16.0,11.0,30.25,North,-999,-999.0,-999.0,81,-99.99,,,-99.99,,2013-02-02 12:01:00,
2013-02-02 05:11:00,16.0,11.0,30.25,North,-999,-999.0,-999.0,81,-99.99,,,-99.99,,2013-02-02 12:11:00,
2013-02-02 05:22:00,16.0,11.0,30.25,North,-999,-999.0,-999.0,81,-99.99,,,-99.99,,2013-02-02 12:22:00,
2013-02-02 05:32:00,15.0,11.0,30.25,North,-999,-999.0,-999.0,83,-99.99,,,-99.99,,2013-02-02 12:32:00,
2013-02-02 05:42:00,15.0,11.0,30.25,North,-999,-999.0,-999.0,83,-99.99,,,-99.99,,2013-02-02 12:42:00,
2013-02-02 05:52:00,13.0,10.0,30.25,North,-999,-999.0,-999.0,87,-99.99,,,-99.99,,2013-02-02 12:52:00,
2013-02-02 06:00:00,14.0,11.0,30.26,North,-999,-999.0,-999.0,86,-99.99,,,-99.99,,2013-02-02 13:00:00,
2013-02-02 06:02:00,15.0,12.0,30.25,North,-999,-999.0,-999.0,86,-99.99,,,-99.99,,2013-02-02 13:02:00,
2013-02-02 06:11:00,15.0,12.0,30.25,North,-999,-999.0,-999.0,86,-99.99,,,-99.99,,2013-02-02 13:11:00,
2013-02-02 06:21:00,14.0,10.0,30.25,North,-999,-999.0,-999.0,83,-99.99,,,-99.99,,2013-02-02 13:21:00,
2013-02-02 06:32:00,14.0,11.0,30.26,North,-999,-999.0,-999.0,86,-99.99,,,-99.99,,2013-02-02 13:32:00,
2013-02-02 06:42:00,14.0,11.0,30.26,North,-999,-999.0,-999.0,86,-99.99,,,-99.99,,2013-02-02 13:42:00,
2013-02-02 06:52:00,14.0,11.0,30.26,North,-999,-999.0,-999.0,86,-99.99,,,-99.99,,2013-02-02 13:52:00,
2013-02-02 12:32:00,22.0,12.0,30.29,North,-999,-999.0,-999.0,66,-99.99,,,-99.99,,2013-02-02 19:32:00,
2013-02-02 12:41:00,21.0,13.0,30.28,North,-999,-999.0,-999.0,70,-99.99,,,-99.99,,2013-02-02 19:41:00,
2013-02-02 12:52:00,21.0,13.0,30.28,North,-999,-999.0,-999.0,70,-99.99,,,-99.99,,2013-02-02 19:52:00,
2013-02-02 13:01:00,23.0,13.0,30.27,North,-999,-999.0,-999.0,66,-99.99,,,-99.99,,2013-02-02 20:01:00,
2013-02-02 13:11:00,23.0,13.0,30.27,North,-999,-999.0,-999.0,66,-99.99,,,-99.99,,2013-02-02 20:11:00,
2013-02-02 13:21:00,24.0,14.0,30.27,North,-999,-999.0,-999.0,65,-99.99,,,-99.99,,2013-02-02 20:21:00,
2013-02-02 13:32:00,25.0,15.0,30.27,North,-999,-999.0,-999.0,64,-99.99,,,-99.99,,2013-02-02 20:32:00,
2013-02-02 13:41:00,25.0,15.0,30.27,North,-999,-999.0,-999.0,64,-99.99,,,-99.99,,2013-02-02 20:41:00,
2013-02-02 13:52:00,25.0,14.0,30.27,North,-999,-999.0,-999.0,63,-99.99,,,-99.99,,2013-02-02 20:52:00,
2013-02-02 14:02:00,27.0,16.0,30.27,North,-999,-999.0,-999.0,62,-99.99,,,-99.99,,2013-02-02 21:02:00,
2013-02-02 14:11:00,27.0,16.0,30.27,North,-999,-999.0,-999.0,62,-99.99,,,-99.99,,2013-02-02 21:11:00,
2013-02-02 14:21:00,27.0,16.0,30.27,North,-999,-999.0,-999.0,62,-99.99,,,-99.99,,2013-02-02 21:21:00,
2013-02-02 14:32:00,28.0,16.0,30.26,North,-999,-999.0,-999.0,61,-99.99,,,-99.99,,2013-02-02 21:32:00,
2013-02-02 14:42:00,28.0,16.0,30.26,North,-999,-999.0,-999.0,61,-99.99,,,-99.99,,2013-02-02 21:42:00,
2013-02-02 14:52:00,29.0,17.0,30.26,North,-999,-999.0,-999.0,60,-99.99,,,-99.99,,2013-02-02 21:52:00,
2013-02-02 15:02:00,27.0,16.0,30.26,North,-999,-999.0,-999.0,63,-99.99,,,-99.99,,2013-02-02 22:02:00,
2013-02-02 15:11:00,27.0,16.0,30.26,North,-999,-999.0,-999.0,63,-99.99,,,-99.99,,2013-02-02 22:11:00,
2013-02-02 15:21:00,27.0,16.0,30.26,North,-999,-999.0,-999.0,63,-99.99,,,-99.99,,2013-02-02 22:21:00,
2013-02-02 15:32:00,27.0,16.0,30.26,North,-999,-999.0,-999.0,64,-99.99,,,-99.99,,2013-02-02 22:32:00,
2013-02-02 15:42:00,27.0,16.0,30.26,North,-999,-999.0,-999.0,64,-99.99,,,-99.99,,2013-02-02 22:42:00,
2013-02-02 15:52:00,27.0,16.0,30.25,North,-999,-999.0,-999.0,63,-99.99,,,-99.99,,2013-02-02 22:52:00,
2013-02-02 16:01:00,27.0,15.0,30.25,North,-999,-999.0,-999.0,61,-99.99,,,-99.99,,2013-02-02 23:01:00,
2013-02-02 16:11:00,27.0,15.0,30.25,North,-999,-999.0,-999.0,61,-99.99,,,-99.99,,2013-02-02 23:11:00,
2013-02-02 16:21:00,28.0,16.0,30.25,North,-999,-999.0,-999.0,60,-99.99,,,-99.99,,2013-02-02 23:21:00,
2013-02-02 16:32:00,28.0,17.0,30.25,North,-999,-999.0,-999.0,62,-99.99,,,-99.99,,2013-02-02 23:32:00,
2013-02-02 16:41:00,28.0,17.0,30.25,North,-999,-999.0,-999.0,62,-99.99,,,-99.99,,2013-02-02 23:41:00,
2013-02-02 16:52:00,27.0,16.0,30.24,North,-999,-999.0,-999.0,62,-99.99,,,-99.99,,2013-02-02 23:52:00,
2013-02-02 17:01:00,28.0,16.0,30.24,North,-999,-999.0,-999.0,61,-99.99,,,-99.99,,2013-02-03 00:01:00,
2013-02-02 17:11:00,28.0,16.0,30.24,North,-999,-999.0,-999.0,61,-99.99,,,-99.99,,2013-02-03 00:11:00,
2013-02-02 17:21:00,26.0,16.0,30.24,North,-999,-999.0,-999.0,64,-99.99,,,-99.99,,2013-02-03 00:21:00,
2013-02-02 17:31:00,26.0,16.0,30.24,North,-999,-999.0,-999.0,65,-99.99,,,-99.99,,2013-02-03 00:31:00,
2013-02-02 17:41:00,26.0,16.0,30.24,North,-999,-999.0,-999.0,65,-99.99,,,-99.99,,2013-02-03 00:41:00,
2013-02-02 17:52:00,25.0,15.0,30.24,North,-999,-999.0,-999.0,66,-99.99,,,-99.99,,2013-02-03 00:52:00,
2013-02-02 18:02:00,25.0,16.0,30.25,North,-999,-999.0,-999.0,67,-99.99,,,-99.99,,2013-02-03 01:02:00,
2013-02-02 18:11:00,25.0,16.0,30.25,North,-999,-999.0,-999.0,67,-99.99,,,-99.99,,2013-02-03 01:11:00,
2013-02-02 18:21:00,25.0,16.0,30.25,North,-999,-999.0,-999.0,67,-99.99,,,-99.99,,2013-02-03 01:21:00,
2013-02-02 18:32:00,25.0,16.0,30.25,North,-999,-999.0,-999.0,67,-99.99,,,-99.99,,2013-02-03 01:32:00,
2013-02-02 18:41:00,25.0,16.0,30.25,North,-999,-999.0,-999.0,67,-99.99,,,-99.99,,2013-02-03 01:41:00,
2013-02-02 18:52:00,25.0,15.0,30.25,North,-999,-999.0,-999.0,66,-99.99,,,-99.99,,2013-02-03 01:52:00,
2013-02-02 19:01:00,25.0,16.0,30.25,North,-999,-999.0,-999.0,67,-99.99,,,-99.99,,2013-02-03 02:01:00,
2013-02-02 19:11:00,25.0,16.0,30.25,North,-999,-999.0,-999.0,67,-99.99,,,-99.99,,2013-02-03 02:11:00,
2013-02-02 19:21:00,25.0,16.0,30.25,North,-999,-999.0,-999.0,67,-99.99,,,-99.99,,2013-02-03 02:21:00,
2013-02-02 19:31:00,24.0,15.0,30.25,North,-999,-999.0,-999.0,68,-99.99,,,-99.99,,2013-02-03 02:31:00,
2013-02-02 19:41:00,24.0,15.0,30.25,North,-999,-999.0,-999.0,68,-99.99,,,-99.99,,2013-02-03 02:41:00,
2013-02-02 19:52:00,24.0,15.0,30.25,North,-999,-999.0,-999.0,69,-99.99,,,-99.99,,2013-02-03 02:52:00,
2013-02-02 20:01:00,24.0,15.0,30.26,North,-999,-999.0,-999.0,68,-99.99,,,-99.99,,2013-02-03 03:01:00,
2013-02-02 20:11:00,24.0,15.0,30.26,North,-999,-999.0,-999.0,68,-99.99,,,-99.99,,2013-02-03 03:11:00,
2013-02-02 20:21:00,24.0,15.0,30.25,North,-999,-999.0,-999.0,68,-99.99,,,-99.99,,2013-02-03 03:21:00,
2013-02-02 20:31:00,24.0,15.0,30.25,North,-999,-999.0,-999.0,68,-99.99,,,-99.99,,2013-02-03 03:31:00,
2013-02-02 20:41:00,24.0,15.0,30.25,North,-999,-999.0,-999.0,68,-99.99,,,-99.99,,2013-02-03 03:41:00,
2013-02-02 20:52:00,23.0,15.0,30.26,North,-999,-999.0,-999.0,70,-99.99,,,-99.99,,2013-02-03 03:52:00,
2013-02-02 21:01:00,23.0,15.0,30.25,North,-999,-999.0,-999.0,70,-99.99,,,-99.99,,2013-02-03 04:01:00,
2013-02-02 21:11:00,23.0,15.0,30.25,North,-999,-999.0,-999.0,70,-99.99,,,-99.99,,2013-02-03 04:11:00,
2013-02-02 21:21:00,23.0,15.0,30.25,North,-999,-999.0,-999.0,70,-99.99,,,-99.99,,2013-02-03 04:21:00,
2013-02-02 21:31:00,23.0,15.0,30.25,North,-999,-999.0,-999.0,70,-99.99,,,-99.99,,2013-02-03 04:31:00,
2013-02-02 21:42:00,23.0,15.0,30.25,North,-999,-999.0,-999.0,70,-99.99,,,-99.99,,2013-02-03 04:42:00,
2013-02-02 21:52:00,23.0,15.0,30.24,North,-999,-999.0,-999.0,70,-99.99,,,-99.99,,2013-02-03 04:52:00,
2013-02-02 22:03:00,23.0,15.0,30.24,North,-999,-999.0,-999.0,71,-99.99,,,-99.99,,2013-02-03 05:03:00,
2013-02-02 22:11:00,23.0,15.0,30.24,North,-999,-999.0,-999.0,71,-99.99,,,-99.99,,2013-02-03 05:11:00,
2013-02-02 22:22:00,22.0,14.0,30.24,North,-999,-999.0,-999.0,71,-99.99,,,-99.99,,2013-02-03 05:22:00,
2013-02-02 22:32:00,21.0,14.0,30.25,North,-999,-999.0,-999.0,74,-99.99,,,-99.99,,2013-02-03 05:32:00,
2013-02-02 22:41:00,21.0,14.0,30.25,North,-999,-999.0,-999.0,74,-99.99,,,-99.99,,2013-02-03 05:41:00,
2013-02-02 22:52:00,19.0,14.0,30.24,North,-999,-999.0,-999.0,79,-99.99,,,-99.99,,2013-02-03 05:52:00,
2013-02-02 23:02:00,19.0,14.0,30.24,North,-999,-999.0,-999.0,81,-99.99,,,-99.99,,2013-02-03 06:02:00,
2013-02-02 23:11:00,19.0,14.0,30.24,North,-999,-999.0,-999.0,81,-99.99,,,-99.99,,2013-02-03 06:11:00,
2013-02-02 23:21:00,19.0,14.0,30.24,North,-999,-999.0,-999.0,80,-99.99,,,-99.99,,2013-02-03 06:21:00,
2013-02-02 23:31:00,20.0,15.0,30.24,North,-999,-999.0,-999.0,79,-99.99,,,-99.99,,2013-02-03 06:31:00,
2013-02-02 23:41:00,20.0,15.0,30.24,North,-999,-999.0,-999.0,79,-99.99,,,-99.99,,2013-02-03 06:41:00,
2013-02-02 23:52:00,21.0,15.0,30.23,North,-999,-999.0,-999.0,78,-99.99,,,-99.99,,2013-02-03 06:52:00,